Time;durP1;ratioP1;P1;durP2;ratioP2;P2;SDS_P1;SDS_P2;PMS_P1;PMS_P2;Temp;Humidity;BMP_temperature;BMP_pressure;BME280_temperature;BME280_humidity;BME280_pressure;Samples;Min_cycle;Max_cycle;Signal;HPM_P1;HPM_P2
2021/05/31 00:01:19;;;;;;;17.95;11.73;;;;;;;15.62;66.01;100883.25;5069461;28;20035;-73
2021/05/31 00:03:44;;;;;;;15.48;11.07;;;;;;;15.61;66.13;100883.59;5060532;28;20458;-73
2021/05/31 00:06:10;;;;;;;14.13;11.00;;;;;;;15.59;66.16;100885.88;5060899;28;20034;-74
2021/05/31 00:08:36;;;;;;;16.60;11.00;;;;;;;15.54;65.53;100878.41;5042507;28;20032;-74
2021/05/31 00:11:01;;;;;;;20.48;11.90;;;;;;;15.52;66.57;100877.94;5046079;28;20109;-73
2021/05/31 00:13:27;;;;;;;16.17;11.48;;;;;;;15.50;66.49;100879.41;5023087;28;20440;-74
2021/05/31 00:15:55;;;;;;;16.98;11.48;;;;;;;15.46;66.33;100870.81;5064054;28;20094;-74
2021/05/31 00:18:20;;;;;;;18.77;11.23;;;;;;;15.41;66.34;100880.16;5029787;28;20028;-74
2021/05/31 00:20:46;;;;;;;12.93;10.43;;;;;;;15.42;65.96;100875.38;5038668;28;20032;-74
2021/05/31 00:23:12;;;;;;;15.45;11.10;;;;;;;15.39;66.36;100876.84;5045454;28;20082;-74
2021/05/31 00:25:37;;;;;;;15.88;11.18;;;;;;;15.36;65.97;100874.69;5024433;28;20033;-74
2021/05/31 00:28:03;;;;;;;15.70;11.52;;;;;;;15.35;65.98;100874.97;5065700;28;20539;-74
2021/05/31 00:30:28;;;;;;;15.70;9.98;;;;;;;15.36;65.76;100869.09;5065777;28;20435;-74
2021/05/31 00:32:54;;;;;;;14.75;10.40;;;;;;;15.28;65.52;100864.25;5054775;28;20029;-74
2021/05/31 00:35:20;;;;;;;16.02;10.55;;;;;;;15.25;66.34;100862.09;5062295;28;20025;-74
2021/05/31 00:37:45;;;;;;;13.63;10.18;;;;;;;15.19;66.09;100871.75;5059488;28;20032;-74
2021/05/31 00:40:11;;;;;;;15.52;10.65;;;;;;;15.19;66.33;100863.34;5043289;28;20366;-73
2021/05/31 00:42:37;;;;;;;14.98;11.00;;;;;;;15.15;65.89;100860.34;5038958;28;20060;-74
2021/05/31 00:45:04;;;;;;;14.98;10.55;;;;;;;15.11;66.21;100867.72;5051845;28;21462;-74
2021/05/31 00:47:29;;;;;;;16.70;11.32;;;;;;;15.10;66.29;100866.09;5063325;28;20112;-74
2021/05/31 00:49:57;;;;;;;15.98;10.60;;;;;;;15.07;65.92;100863.06;5059502;28;20032;-74
2021/05/31 00:52:22;;;;;;;16.98;10.65;;;;;;;15.02;66.27;100850.06;5022613;28;20037;-74
2021/05/31 00:54:48;;;;;;;15.40;11.35;;;;;;;15.02;66.23;100857.63;5052140;28;20481;-74
2021/05/31 00:57:13;;;;;;;13.75;10.40;;;;;;;14.97;66.22;100850.16;5059262;28;20381;-74
2021/05/31 00:59:39;;;;;;;16.95;11.00;;;;;;;14.95;65.98;100844.88;5045992;28;20032;-74
2021/05/31 01:02:04;;;;;;;13.63;10.60;;;;;;;14.92;66.32;100850.28;5066389;28;20029;-73
2021/05/31 01:04:30;;;;;;;15.02;10.63;;;;;;;14.86;65.78;100846.78;5054340;28;20033;-75
2021/05/31 01:07:11;;;;;;;14.50;10.80;;;;;;;14.84;66.05;100840.66;5031093;28;20112;-73
2021/05/31 01:10:09;;;;;;;14.93;11.13;;;;;;;14.80;66.56;100845.25;5029764;28;20104;-74
2021/05/31 01:12:57;;;;;;;16.33;10.80;;;;;;;14.76;66.81;100841.41;5038770;28;20433;-74
2021/05/31 01:15:26;;;;;;;16.33;10.45;;;;;;;14.74;67.12;100835.31;5058530;28;20098;-74
2021/05/31 01:17:55;;;;;;;13.93;10.80;;;;;;;14.70;67.04;100831.50;5046661;28;20246;-74
2021/05/31 01:20:22;;;;;;;15.50;10.43;;;;;;;14.67;66.90;100837.72;5030581;28;20025;-74
2021/05/31 01:22:48;;;;;;;15.35;10.68;;;;;;;14.59;67.00;100832.84;5036933;28;20034;-73
2021/05/31 01:25:41;;;;;;;16.60;11.93;;;;;;;14.59;67.60;100832.84;5058542;28;20028;-74
2021/05/31 01:28:26;;;;;;;16.40;10.63;;;;;;;14.56;67.46;100836.28;5050975;28;20047;-74
2021/05/31 01:30:52;;;;;;;21.30;11.07;;;;;;;14.50;67.08;100833.56;5059467;28;20121;-74
2021/05/31 01:33:20;;;;;;;14.98;10.07;;;;;;;14.48;67.38;100824.66;5024232;28;20030;-74
2021/05/31 01:35:45;;;;;;;14.13;10.25;;;;;;;14.44;67.55;100823.63;5048229;28;20024;-73
2021/05/31 01:38:11;;;;;;;12.55;10.05;;;;;;;14.39;66.85;100826.53;5045751;28;20555;-74
2021/05/31 01:40:36;;;;;;;14.80;10.38;;;;;;;14.38;67.75;100829.66;5056075;28;20739;-73
2021/05/31 01:43:04;;;;;;;13.65;9.95;;;;;;;14.37;68.28;100828.00;5025689;28;20036;-74
2021/05/31 01:45:30;;;;;;;13.93;9.82;;;;;;;14.34;67.70;100821.06;5040076;28;20034;-74
2021/05/31 01:47:56;;;;;;;14.38;10.10;;;;;;;14.31;68.47;100824.47;5059669;28;20032;-74
2021/05/31 01:50:21;;;;;;;13.63;9.70;;;;;;;14.27;67.77;100827.06;5044681;28;20033;-74
2021/05/31 01:52:47;;;;;;;13.85;10.05;;;;;;;14.27;68.25;100820.66;5025907;28;20385;-74
2021/05/31 01:55:15;;;;;;;14.48;9.68;;;;;;;14.22;67.83;100815.19;5055784;28;20032;-74
2021/05/31 01:57:45;;;;;;;14.63;9.70;;;;;;;14.18;67.83;100823.34;5049748;28;20111;-73
2021/05/31 02:00:11;;;;;;;10.00;8.70;;;;;;;14.16;67.54;100819.22;5027289;28;20385;-74
2021/05/31 02:02:36;;;;;;;13.13;9.32;;;;;;;14.16;67.92;100817.25;5053498;28;20034;-74
2021/05/31 02:05:06;;;;;;;13.50;9.80;;;;;;;14.12;67.95;100816.19;5078998;28;20044;-74
2021/05/31 02:07:31;;;;;;;12.32;9.48;;;;;;;14.10;67.78;100818.50;5047554;28;20029;-74
2021/05/31 02:09:57;;;;;;;15.10;9.27;;;;;;;14.09;68.17;100814.03;5050161;28;20041;-74
2021/05/31 02:12:23;;;;;;;11.52;8.98;;;;;;;14.06;67.91;100817.44;5035519;28;20039;-74
2021/05/31 02:14:50;;;;;;;12.73;9.27;;;;;;;14.03;68.21;100810.50;5028319;28;20068;-75
2021/05/31 02:17:34;;;;;;;11.90;8.50;;;;;;;14.00;67.96;100816.72;5049236;28;20051;-74
2021/05/31 02:20:00;;;;;;;13.20;8.95;;;;;;;13.99;68.08;100811.47;5061461;28;20025;-74
2021/05/31 02:22:25;;;;;;;11.48;8.95;;;;;;;13.96;68.13;100812.09;5024622;28;20024;-74
2021/05/31 02:24:52;;;;;;;15.90;8.82;;;;;;;13.93;68.31;100801.50;5029760;28;20040;-74
2021/05/31 02:27:17;;;;;;;13.45;8.90;;;;;;;13.93;68.32;100801.50;5061125;28;20029;-74
2021/05/31 02:29:43;;;;;;;12.57;8.52;;;;;;;13.92;68.09;100805.44;5035228;28;20048;-74
2021/05/31 02:32:08;;;;;;;11.35;8.75;;;;;;;13.85;68.05;100798.31;5049456;28;20029;-74
2021/05/31 02:34:34;;;;;;;13.57;9.90;;;;;;;13.87;68.78;100795.19;5031160;28;20050;-73
2021/05/31 02:37:00;;;;;;;12.60;9.07;;;;;;;13.82;68.45;100795.31;5064475;28;20107;-74
2021/05/31 02:39:25;;;;;;;12.50;8.57;;;;;;;13.82;68.41;100801.72;5048473;28;20032;-73
2021/05/31 02:41:51;;;;;;;13.57;9.32;;;;;;;13.79;68.02;100795.91;5040969;28;20024;-74
2021/05/31 02:44:17;;;;;;;12.73;9.05;;;;;;;13.80;68.96;100786.44;5066164;28;20029;-74
2021/05/31 02:46:42;;;;;;;12.40;9.15;;;;;;;13.76;69.11;100785.38;5062655;28;20036;-74
2021/05/31 02:49:08;;;;;;;12.27;8.70;;;;;;;13.74;69.08;100787.66;5043163;28;20025;-73
2021/05/31 02:51:34;;;;;;;12.02;8.27;;;;;;;13.71;68.80;100785.50;5063868;28;20420;-74
2021/05/31 02:54:00;;;;;;;13.95;8.43;;;;;;;13.71;68.51;100788.28;5040297;28;20036;-74
2021/05/31 02:59:47;;;;;;;12.60;9.13;;;;;;;13.62;68.63;100791.78;5067112;28;20052;-74
2021/05/31 03:02:12;;;;;;;15.13;9.00;;;;;;;13.61;69.46;100789.28;5063538;28;20086;-74
2021/05/31 03:04:38;;;;;;;12.45;8.57;;;;;;;13.57;68.99;100777.09;5057721;28;20033;-74
2021/05/31 03:07:03;;;;;;;13.07;9.02;;;;;;;13.54;69.65;100778.53;5062302;28;20025;-74
2021/05/31 03:09:29;;;;;;;12.10;8.35;;;;;;;13.55;69.30;100782.97;5058766;28;20033;-74
2021/05/31 03:11:54;;;;;;;11.68;8.40;;;;;;;13.51;69.05;100773.56;5065400;28;20041;-74
2021/05/31 03:14:20;;;;;;;11.80;8.27;;;;;;;13.49;69.03;100775.84;5065010;28;20044;-74
2021/05/31 03:16:45;;;;;;;12.82;8.65;;;;;;;13.46;69.13;100778.44;5047866;28;20033;-74
2021/05/31 03:19:11;;;;;;;14.07;8.88;;;;;;;13.43;68.94;100765.91;5044468;28;20052;-74
2021/05/31 03:21:36;;;;;;;9.95;8.48;;;;;;;13.39;69.22;100771.25;5061233;28;20040;-73
2021/05/31 03:24:02;;;;;;;13.25;8.85;;;;;;;13.40;69.47;100778.50;5032371;28;20040;-75
2021/05/31 03:26:28;;;;;;;12.68;8.15;;;;;;;13.36;69.49;100777.44;5061352;28;20062;-73
2021/05/31 03:28:53;;;;;;;11.77;8.05;;;;;;;13.33;69.55;100768.88;5050516;28;20037;-74
2021/05/31 03:31:19;;;;;;;13.57;8.45;;;;;;;13.33;69.40;100768.88;5043281;28;20033;-74
2021/05/31 03:33:44;;;;;;;14.43;9.02;;;;;;;13.29;69.71;100770.59;5059416;28;20028;-74
2021/05/31 03:36:10;;;;;;;10.65;7.97;;;;;;;13.25;69.87;100763.97;5055927;28;20084;-74
2021/05/31 03:38:35;;;;;;;12.57;9.10;;;;;;;13.23;69.97;100766.22;5045983;28;20056;-74
2021/05/31 03:41:01;;;;;;;13.43;9.30;;;;;;;13.22;70.04;100759.00;5028007;28;20032;-73
2021/05/31 03:43:26;;;;;;;13.70;8.70;;;;;;;13.23;69.75;100760.66;5048531;28;20099;-73
2021/05/31 03:45:52;;;;;;;14.35;9.00;;;;;;;13.21;69.30;100758.19;5064493;28;20401;-74
2021/05/31 03:51:39;;;;;;;13.00;8.77;;;;;;;13.15;69.85;100754.66;5056236;28;20043;-74
2021/05/31 03:54:05;;;;;;;12.63;8.68;;;;;;;13.14;70.01;100763.31;5065293;28;20438;-74
2021/05/31 03:56:30;;;;;;;15.20;9.13;;;;;;;13.12;69.52;100757.22;5032479;28;20029;-74
2021/05/31 03:58:56;;;;;;;11.65;8.23;;;;;;;13.08;69.71;100753.38;5064486;28;20028;-73
2021/05/31 04:01:21;;;;;;;12.50;8.55;;;;;;;13.07;69.84;100758.16;5040195;28;20155;-73
2021/05/31 04:03:51;;;;;;;11.55;8.50;;;;;;;13.06;69.83;100756.47;5007318;28;20025;-74
2021/05/31 04:06:24;;;;;;;13.50;8.48;;;;;;;13.04;70.04;100757.91;5064883;28;20040;-73
2021/05/31 04:11:37;;;;;;;11.43;7.93;;;;;;;13.03;68.98;100751.50;5050392;28;20030;-74
2021/05/31 04:14:02;;;;;;;11.82;8.20;;;;;;;12.97;69.82;100758.31;5064612;28;20033;-74
2021/05/31 04:16:28;;;;;;;11.98;8.35;;;;;;;12.96;69.01;100751.09;5061546;28;20048;-74
2021/05/31 04:18:53;;;;;;;12.73;8.30;;;;;;;12.90;69.48;100758.69;5058456;28;20055;-74
2021/05/31 04:21:19;;;;;;;12.88;8.23;;;;;;;12.96;69.73;100759.44;5058461;28;20021;-74
2021/05/31 04:23:44;;;;;;;15.38;8.80;;;;;;;12.92;69.83;100750.84;5050477;28;20047;-74
2021/05/31 04:26:10;;;;;;;13.50;7.95;;;;;;;12.91;70.36;100760.34;5041986;28;20037;-75
2021/05/31 04:28:35;;;;;;;10.48;7.65;;;;;;;12.92;70.20;100755.59;5044347;28;20030;-75
2021/05/31 04:31:01;;;;;;;12.65;8.25;;;;;;;12.93;70.71;100751.69;5041894;28;20040;-74
2021/05/31 04:33:26;;;;;;;10.18;7.82;;;;;;;12.92;71.00;100752.81;5027257;28;20078;-74
2021/05/31 04:35:52;;;;;;;9.65;7.53;;;;;;;12.95;70.86;100754.97;5026195;28;20040;-74
2021/05/31 04:38:17;;;;;;;12.95;8.52;;;;;;;12.96;70.52;100749.13;5048046;28;20057;-74
2021/05/31 04:40:43;;;;;;;12.60;8.00;;;;;;;13.01;70.33;100759.38;5039475;28;20030;-74
2021/05/31 04:43:08;;;;;;;11.27;7.75;;;;;;;13.08;70.75;100753.38;5045272;28;20419;-77
2021/05/31 04:45:34;;;;;;;13.15;8.15;;;;;;;13.10;71.70;100751.13;5010411;28;20424;-74
2021/05/31 04:47:59;;;;;;;12.90;8.60;;;;;;;13.17;72.27;100760.72;5028910;28;20024;-75
2021/05/31 04:50:26;;;;;;;14.07;9.20;;;;;;;13.28;73.62;100757.81;5051785;28;20477;-74
2021/05/31 04:52:51;;;;;;;15.75;9.73;;;;;;;13.36;73.73;100757.94;5015490;28;20120;-74
2021/05/31 04:55:17;;;;;;;13.55;9.43;;;;;;;13.45;74.34;100746.88;5063902;28;20040;-74
2021/05/31 04:57:43;;;;;;;11.05;7.82;;;;;;;13.57;72.39;100750.03;5044418;28;20053;-77
2021/05/31 05:00:09;;;;;;;11.95;7.70;;;;;;;13.71;71.11;100746.41;5061513;28;20104;-74
2021/05/31 05:02:34;;;;;;;13.32;8.13;;;;;;;13.82;70.86;100748.69;5059941;28;20028;-74
2021/05/31 05:05:00;;;;;;;11.32;7.60;;;;;;;13.95;69.73;100741.44;5029403;28;20029;-75
2021/05/31 05:07:25;;;;;;;10.95;7.50;;;;;;;14.09;69.13;100742.25;5060070;28;20044;-74
2021/05/31 05:09:51;;;;;;;9.20;7.07;;;;;;;14.23;68.69;100749.78;5038213;28;20029;-75
2021/05/31 05:12:17;;;;;;;8.57;7.20;;;;;;;14.37;68.65;100745.00;5031982;28;20042;-74
2021/05/31 05:14:45;;;;;;;10.30;7.40;;;;;;;14.52;68.49;100747.47;5054748;28;20064;-75
2021/05/31 05:17:10;;;;;;;11.82;7.55;;;;;;;14.68;68.09;100747.09;5057348;28;20028;-74
2021/05/31 05:19:36;;;;;;;9.43;6.47;;;;;;;14.83;67.65;100741.16;5054110;28;20104;-74
2021/05/31 05:22:02;;;;;;;11.15;7.65;;;;;;;14.99;68.70;100738.81;5053633;28;20035;-74
2021/05/31 05:24:27;;;;;;;13.20;7.85;;;;;;;15.15;68.14;100736.44;5064727;28;20079;-74
2021/05/31 05:26:53;;;;;;;11.02;7.18;;;;;;;15.32;67.04;100735.72;5062853;28;20039;-74
2021/05/31 05:29:19;;;;;;;11.05;7.43;;;;;;;15.49;67.40;100734.97;5057498;28;20039;-73
2021/05/31 05:31:45;;;;;;;10.23;6.43;;;;;;;15.67;66.36;100728.31;5080140;28;20493;-74
2021/05/31 05:34:11;;;;;;;9.82;6.63;;;;;;;15.84;65.74;100730.38;5041353;28;20173;-74
2021/05/31 05:36:51;;;;;;;10.27;6.75;;;;;;;16.05;65.34;100739.03;5024275;28;20030;-74
2021/05/31 05:39:44;;;;;;;9.57;6.38;;;;;;;16.22;64.96;100733.47;5063441;28;20044;-74
2021/05/31 05:42:33;;;;;;;8.40;6.15;;;;;;;16.45;64.37;100738.94;5063003;28;20481;-74
2021/05/31 05:47:43;;;;;;;11.23;6.38;;;;;;;16.88;63.87;100741.78;5057692;28;20112;-74
2021/05/31 05:50:10;;;;;;;9.43;6.30;;;;;;;17.07;63.12;100743.41;5061873;28;20028;-75
2021/05/31 05:52:36;;;;;;;11.95;6.07;;;;;;;17.25;62.69;100747.84;5060595;28;20485;-71
2021/05/31 05:55:05;;;;;;;8.88;6.72;;;;;;;17.40;62.75;100741.69;5057497;28;20037;-71
2021/05/31 05:57:30;;;;;;;10.90;7.15;;;;;;;17.57;62.55;100740.81;5060240;28;20043;-70
2021/05/31 05:59:56;;;;;;;12.93;7.78;;;;;;;17.75;62.68;100735.13;5056763;28;20033;-71
2021/05/31 06:02:21;;;;;;;10.80;7.57;;;;;;;17.91;62.54;100732.59;5026506;28;20037;-71
2021/05/31 06:04:47;;;;;;;12.80;6.78;;;;;;;18.02;63.12;100723.44;5059228;28;20354;-71
2021/05/31 06:07:12;;;;;;;10.95;6.80;;;;;;;18.22;62.29;100726.63;5021037;28;20032;-71
2021/05/31 06:09:38;;;;;;;10.73;7.80;;;;;;;18.35;62.78;100719.94;5026250;28;20055;-71
2021/05/31 06:12:04;;;;;;;9.48;7.45;;;;;;;18.48;61.47;100718.84;5007017;28;20548;-71
2021/05/31 06:14:29;;;;;;;12.75;7.88;;;;;;;18.63;61.84;100716.56;5046284;28;20025;-71
2021/05/31 06:16:55;;;;;;;10.90;7.30;;;;;;;18.83;61.74;100717.75;5027523;28;20051;-71
2021/05/31 06:19:20;;;;;;;11.77;7.75;;;;;;;18.87;61.14;100713.09;5026917;28;20028;-71
2021/05/31 06:21:46;;;;;;;11.02;7.65;;;;;;;19.05;61.23;100719.38;5012121;28;20031;-71
2021/05/31 06:24:12;;;;;;;8.25;5.90;;;;;;;19.28;60.11;100720.63;5038584;28;20151;-73
2021/05/31 06:26:38;;;;;;;9.50;6.75;;;;;;;19.45;60.33;100718.78;5026501;28;20108;-76
2021/05/31 06:29:03;;;;;;;9.98;6.25;;;;;;;19.61;59.88;100719.72;5057190;28;20039;-75
2021/05/31 06:31:29;;;;;;;11.95;7.20;;;;;;;19.73;59.25;100722.59;5043358;28;20033;-75
2021/05/31 06:33:54;;;;;;;10.52;6.90;;;;;;;19.83;59.02;100722.13;5091415;28;20393;-76
2021/05/31 06:36:20;;;;;;;10.52;6.75;;;;;;;19.97;58.66;100715.31;5046022;28;20036;-75
2021/05/31 06:38:45;;;;;;;11.15;6.28;;;;;;;20.14;58.30;100726.34;5040138;28;20064;-76
2021/05/31 06:41:11;;;;;;;10.25;6.78;;;;;;;20.21;57.86;100725.78;5057502;28;20042;-76
2021/05/31 06:43:38;;;;;;;9.95;6.05;;;;;;;20.36;58.84;100721.38;5048022;28;20029;-75
2021/05/31 06:46:03;;;;;;;12.30;7.47;;;;;;;20.44;58.10;100721.25;5062026;28;20503;-76
2021/05/31 06:48:29;;;;;;;9.65;7.05;;;;;;;20.61;57.86;100723.00;5061234;28;20107;-76
2021/05/31 06:50:54;;;;;;;10.85;6.60;;;;;;;20.62;57.87;100726.66;5057009;28;20029;-76
2021/05/31 06:53:20;;;;;;;7.57;5.95;;;;;;;20.85;57.61;100726.94;5062394;28;20082;-76
2021/05/31 06:55:46;;;;;;;8.23;6.55;;;;;;;20.97;57.48;100729.69;5059242;28;20113;-71
2021/05/31 06:58:12;;;;;;;9.15;6.00;;;;;;;21.07;57.59;100719.91;5048127;28;20060;-73
2021/05/31 07:00:37;;;;;;;9.13;5.75;;;;;;;20.99;57.00;100724.53;5044495;28;20059;-73
2021/05/31 07:03:03;;;;;;;11.57;6.32;;;;;;;21.25;57.49;100723.22;5058340;28;20025;-73
2021/05/31 07:05:28;;;;;;;9.75;5.85;;;;;;;21.30;56.32;100720.94;5047216;28;20076;-72
2021/05/31 07:07:54;;;;;;;6.22;4.68;;;;;;;21.48;56.53;100717.81;5059595;28;20028;-73
2021/05/31 07:10:26;;;;;;;7.88;5.50;;;;;;;21.42;56.62;100722.91;5068871;28;20040;-72
2021/05/31 07:12:52;;;;;;;8.60;5.78;;;;;;;21.44;55.84;100722.56;5078739;28;20083;-73
2021/05/31 07:15:19;;;;;;;9.13;5.57;;;;;;;21.45;55.18;100716.53;5058850;28;20116;-73
2021/05/31 07:17:45;;;;;;;7.60;4.63;;;;;;;21.80;55.37;100713.81;5061643;28;20060;-76
2021/05/31 07:20:12;;;;;;;7.05;5.00;;;;;;;21.73;54.80;100709.97;5028866;28;20029;-72
2021/05/31 07:22:38;;;;;;;9.65;5.40;;;;;;;21.89;55.09;100715.63;5041339;28;20634;-73
2021/05/31 07:25:05;;;;;;;6.18;4.40;;;;;;;22.04;55.76;100711.97;5081765;28;20074;-73
2021/05/31 07:27:30;;;;;;;8.48;5.22;;;;;;;22.05;55.38;100705.13;5059650;28;20029;-73
2021/05/31 07:29:56;;;;;;;10.35;5.70;;;;;;;22.15;55.03;100709.38;5060988;28;20033;-73
2021/05/31 07:32:22;;;;;;;7.80;5.10;;;;;;;22.29;54.30;100706.94;5064933;28;20059;-73
2021/05/31 07:34:47;;;;;;;7.47;4.60;;;;;;;22.38;53.82;100718.06;5072351;28;20024;-73
2021/05/31 07:37:13;;;;;;;7.97;4.65;;;;;;;22.53;54.00;100703.81;5056679;28;20057;-72
2021/05/31 07:39:38;;;;;;;7.75;4.30;;;;;;;22.66;53.44;100706.53;5043628;28;20029;-72
2021/05/31 07:42:05;;;;;;;8.00;4.68;;;;;;;22.81;52.48;100699.97;5068065;28;20025;-72
2021/05/31 07:44:30;;;;;;;6.13;4.30;;;;;;;22.81;51.76;100697.13;5061364;28;20040;-72
2021/05/31 07:46:56;;;;;;;6.28;4.03;;;;;;;22.85;51.34;100702.91;5064062;28;20029;-72
2021/05/31 07:49:21;;;;;;;6.22;4.00;;;;;;;22.93;50.61;100699.84;5045405;28;20025;-72
2021/05/31 07:51:48;;;;;;;10.98;4.38;;;;;;;22.83;50.20;100691.94;5062179;28;20025;-73
2021/05/31 07:54:15;;;;;;;5.90;3.85;;;;;;;23.09;49.11;100688.41;5043522;28;20040;-72
2021/05/31 07:56:41;;;;;;;6.45;3.75;;;;;;;22.97;49.44;100695.06;5066048;28;20048;-72
2021/05/31 07:59:07;;;;;;;6.30;3.63;;;;;;;23.17;48.70;100695.06;5047257;28;20029;-72
2021/05/31 08:01:36;;;;;;;5.05;3.35;;;;;;;23.20;49.14;100697.13;5057946;28;20064;-72
2021/05/31 08:04:05;;;;;;;6.13;3.55;;;;;;;23.19;48.94;100706.84;5061965;28;20040;-73
2021/05/31 08:06:34;;;;;;;5.82;3.80;;;;;;;23.27;47.83;100702.13;5060164;28;20108;-73
2021/05/31 08:09:01;;;;;;;7.13;3.22;;;;;;;23.54;49.26;100695.34;5096494;28;20078;-73
2021/05/31 08:11:27;;;;;;;4.25;3.70;;;;;;;23.63;48.93;100697.94;5063248;28;20043;-72
2021/05/31 08:13:53;;;;;;;5.90;3.38;;;;;;;23.60;47.65;100691.00;5059121;28;20037;-72
2021/05/31 08:16:19;;;;;;;4.43;3.50;;;;;;;23.60;47.69;100693.00;5034164;28;20393;-73
2021/05/31 08:18:45;;;;;;;4.72;3.50;;;;;;;23.68;46.49;100686.28;5061849;28;20035;-74
2021/05/31 08:21:11;;;;;;;7.40;3.72;;;;;;;23.84;46.33;100681.28;5058956;28;20021;-73
2021/05/31 08:23:37;;;;;;;5.80;3.30;;;;;;;24.13;46.70;100678.09;5022212;28;20040;-73
2021/05/31 08:26:03;;;;;;;6.00;3.28;;;;;;;24.35;48.27;100682.03;5012420;28;20032;-73
2021/05/31 08:28:29;;;;;;;5.15;3.50;;;;;;;24.24;48.05;100677.03;5012285;28;20371;-73
2021/05/31 08:30:55;;;;;;;5.00;3.40;;;;;;;24.37;45.98;100673.97;5059915;28;20041;-73
2021/05/31 08:33:21;;;;;;;5.38;3.10;;;;;;;24.26;45.66;100670.97;5011153;28;20481;-73
2021/05/31 08:35:47;;;;;;;4.38;2.80;;;;;;;24.47;44.41;100668.47;5024830;28;20036;-73
2021/05/31 08:38:13;;;;;;;6.55;3.10;;;;;;;24.66;44.29;100669.53;5045749;28;20568;-72
2021/05/31 08:40:39;;;;;;;4.72;2.90;;;;;;;24.76;43.62;100665.97;5047466;28;20166;-72
2021/05/31 08:43:04;;;;;;;5.60;2.90;;;;;;;24.55;44.40;100669.38;5048658;28;20029;-72
2021/05/31 08:45:31;;;;;;;7.25;3.15;;;;;;;24.75;43.90;100661.50;5014645;28;20377;-72
2021/05/31 08:47:57;;;;;;;4.13;2.75;;;;;;;24.79;43.74;100668.03;5026233;28;20362;-72
2021/05/31 08:50:24;;;;;;;4.07;2.60;;;;;;;24.94;42.75;100663.38;5034870;28;20032;-72
2021/05/31 08:52:50;;;;;;;4.28;2.75;;;;;;;25.24;43.70;100665.31;5058215;28;20028;-72
2021/05/31 08:55:17;;;;;;;6.07;2.60;;;;;;;25.44;44.40;100663.09;5059793;28;20111;-75
2021/05/31 08:57:44;;;;;;;6.43;2.90;;;;;;;25.09;42.15;100659.47;5048102;28;20024;-70
2021/05/31 09:00:11;;;;;;;3.70;2.70;;;;;;;24.90;43.34;100662.50;5064204;28;20040;-71
2021/05/31 09:02:37;;;;;;;5.32;2.58;;;;;;;24.66;42.32;100658.97;5024687;28;20040;-72
2021/05/31 09:05:03;;;;;;;7.10;2.53;;;;;;;24.86;41.73;100658.81;5054034;28;20104;-72
2021/05/31 09:07:28;;;;;;;3.65;2.88;;;;;;;24.72;41.78;100660.25;5037382;28;20056;-72
2021/05/31 09:09:54;;;;;;;3.05;2.70;;;;;;;24.91;42.65;100658.47;5035092;28;20031;-71
2021/05/31 09:12:38;;;;;;;4.22;2.70;;;;;;;24.98;41.74;100658.53;5045277;28;20032;-72
2021/05/31 09:15:11;;;;;;;5.05;2.90;;;;;;;25.18;43.49;100654.34;5071091;28;20053;-72
2021/05/31 09:17:38;;;;;;;2.90;2.33;;;;;;;24.84;40.77;100658.38;5039786;28;20044;-72
2021/05/31 09:20:05;;;;;;;4.72;2.72;;;;;;;24.70;40.49;100653.34;5058647;28;20181;-72
2021/05/31 09:22:32;;;;;;;3.70;2.60;;;;;;;24.81;40.82;100650.63;5057779;28;20453;-72
2021/05/31 09:24:58;;;;;;;3.05;2.75;;;;;;;24.84;39.92;100647.00;5043151;28;20076;-72
2021/05/31 09:27:24;;;;;;;5.10;2.67;;;;;;;24.81;39.77;100647.78;5040689;28;20036;-72
2021/05/31 09:30:06;;;;;;;3.35;2.40;;;;;;;24.95;40.60;100647.94;5047927;28;20042;-72
2021/05/31 09:32:32;;;;;;;4.85;2.50;;;;;;;25.00;40.09;100633.41;5042521;28;20040;-72
2021/05/31 09:35:04;;;;;;;5.80;2.70;;;;;;;25.18;42.41;100631.59;5021925;28;20394;-72
2021/05/31 09:37:30;;;;;;;5.05;2.67;;;;;;;24.95;41.04;100630.91;5049619;28;20102;-71
2021/05/31 09:40:01;;;;;;;5.13;2.58;;;;;;;25.29;41.22;100634.50;5063651;28;20028;-72
2021/05/31 09:42:26;;;;;;;4.63;2.70;;;;;;;25.19;38.88;100636.06;5053823;28;20044;-72
2021/05/31 09:45:09;;;;;;;5.47;2.50;;;;;;;25.39;40.55;100633.00;5059564;28;20029;-72
2021/05/31 09:47:36;;;;;;;3.95;2.55;;;;;;;25.20;38.14;100628.34;5044125;28;20028;-72
2021/05/31 09:50:03;;;;;;;4.70;2.42;;;;;;;25.24;39.10;100631.22;5020894;28;20370;-72
2021/05/31 09:52:28;;;;;;;2.67;2.10;;;;;;;25.54;39.46;100625.41;5057887;28;20496;-72
2021/05/31 09:54:54;;;;;;;5.60;2.35;;;;;;;25.55;40.35;100627.84;5039432;28;20082;-72
2021/05/31 09:57:24;;;;;;;4.53;2.70;;;;;;;25.28;39.18;100624.38;5027417;28;20394;-72
2021/05/31 10:00:20;;;;;;;5.10;2.38;;;;;;;25.60;39.94;100609.59;5040258;28;20032;-72
2021/05/31 10:03:08;;;;;;;5.75;2.75;;;;;;;25.78;40.69;100615.44;5055879;28;20033;-72
2021/05/31 10:10:25;;;;;;;4.13;2.70;;;;;;;25.58;39.55;100612.03;5055916;28;20032;-72
2021/05/31 10:12:52;;;;;;;4.05;2.70;;;;;;;25.96;39.19;100610.69;5041348;28;20495;-72
2021/05/31 10:15:23;;;;;;;3.00;2.70;;;;;;;26.02;40.21;100611.13;5060727;28;20060;-72
2021/05/31 10:17:52;;;;;;;3.58;2.22;;;;;;;25.93;39.27;100610.66;5018826;28;20108;-72
2021/05/31 10:20:17;;;;;;;5.90;2.50;;;;;;;26.05;40.62;100614.03;5026401;28;20031;-72
2021/05/31 10:22:43;;;;;;;4.63;2.40;;;;;;;25.64;38.58;100616.13;5022738;28;20495;-71
2021/05/31 10:25:11;;;;;;;2.92;2.42;;;;;;;25.92;38.92;100618.41;5053717;28;20032;-71
2021/05/31 10:27:36;;;;;;;4.75;2.72;;;;;;;26.01;39.86;100610.31;5062327;28;20055;-73
2021/05/31 10:30:03;;;;;;;3.95;2.40;;;;;;;26.00;39.34;100613.56;5030378;28;20481;-71
2021/05/31 10:32:28;;;;;;;3.05;2.50;;;;;;;26.03;39.34;100613.59;5049936;28;20033;-72
2021/05/31 10:34:54;;;;;;;3.00;2.05;;;;;;;26.10;38.15;100609.97;5060030;28;20033;-72
2021/05/31 10:37:21;;;;;;;4.65;2.60;;;;;;;26.09;38.22;100605.50;5037474;28;20040;-71
2021/05/31 10:40:00;;;;;;;3.08;2.03;;;;;;;26.20;38.11;100606.38;5043068;28;20033;-72
2021/05/31 10:42:26;;;;;;;3.88;2.50;;;;;;;26.36;39.57;100606.03;5042058;28;20028;-72
2021/05/31 10:44:52;;;;;;;3.28;2.50;;;;;;;26.28;37.05;100599.50;5045639;28;20159;-71
2021/05/31 10:47:25;;;;;;;5.00;2.50;;;;;;;26.23;36.43;100596.22;5029452;28;20044;-70
2021/05/31 10:49:54;;;;;;;4.60;2.30;;;;;;;26.28;36.98;100595.84;5029949;28;20056;-71
2021/05/31 10:52:20;;;;;;;4.30;2.50;;;;;;;26.46;37.15;100593.88;5064035;28;20028;-71
2021/05/31 10:54:46;;;;;;;3.70;2.70;;;;;;;26.72;39.28;100586.28;5050161;28;20029;-71
2021/05/31 10:57:11;;;;;;;5.88;2.42;;;;;;;26.74;39.04;100578.97;5044969;28;20462;-70
2021/05/31 10:59:50;;;;;;;3.05;2.30;;;;;;;26.73;39.17;100576.50;5057612;28;20420;-71
2021/05/31 11:02:27;;;;;;;3.72;2.25;;;;;;;26.88;38.16;100574.50;5040901;28;20067;-71
2021/05/31 11:04:54;;;;;;;3.70;2.40;;;;;;;26.62;37.57;100581.34;5009105;28;20083;-71
2021/05/31 11:07:26;;;;;;;4.15;2.72;;;;;;;26.87;36.75;100573.69;5058313;28;20060;-73
2021/05/31 11:09:53;;;;;;;2.85;2.05;;;;;;;26.94;35.99;100581.41;5057478;28;20083;-71
2021/05/31 11:12:29;;;;;;;3.75;2.20;;;;;;;27.05;35.76;100570.88;5016706;28;20029;-71
2021/05/31 11:15:13;;;;;;;3.58;2.38;;;;;;;27.06;35.60;100566.78;5027544;28;20033;-72
2021/05/31 11:17:49;;;;;;;5.85;2.30;;;;;;;26.89;35.70;100565.53;5081697;28;20048;-71
2021/05/31 11:20:15;;;;;;;7.07;2.42;;;;;;;27.27;36.76;100568.03;5048852;28;20025;-72
2021/05/31 11:22:59;;;;;;;3.92;2.35;;;;;;;27.37;37.21;100562.34;5059652;28;21462;-72
2021/05/31 11:25:26;;;;;;;2.35;2.15;;;;;;;27.43;36.80;100562.75;5026200;28;20093;-71
2021/05/31 11:27:53;;;;;;;4.45;2.20;;;;;;;27.47;37.60;100546.47;5062949;28;20029;-72
2021/05/31 11:30:22;;;;;;;3.28;2.20;;;;;;;27.51;34.72;100557.84;5055656;28;20527;-71
2021/05/31 11:32:49;;;;;;;2.85;1.45;;;;;;;27.68;34.56;100551.31;5057462;28;20040;-71
2021/05/31 11:35:16;;;;;;;4.30;1.80;;;;;;;27.61;35.24;100545.63;5048547;28;20481;-71
2021/05/31 11:37:43;;;;;;;2.80;1.75;;;;;;;27.58;35.60;100550.13;5042814;28;20041;-72